createdAt,value
2018-12-01T00:01:48.012Z,49.97
2018-12-01T00:04:17.357Z,43.93
2018-12-01T00:06:46.217Z,47.63
2018-12-01T00:09:15.168Z,41.67
2018-12-01T00:11:47.375Z,47.43
2018-12-01T00:14:16.289Z,41.50
2018-12-01T00:16:45.237Z,38.63
2018-12-01T00:19:14.097Z,45.23
2018-12-01T00:21:43.165Z,45.43
2018-12-01T00:24:12.220Z,44.90
2018-12-01T00:26:41.229Z,41.73
2018-12-01T00:29:11.606Z,40.80
2018-12-01T00:31:41.376Z,43.57
2018-12-01T00:34:11.590Z,43.60
2018-12-01T00:36:43.973Z,46.77
2018-12-01T00:39:13.445Z,41.90
2018-12-01T00:41:49.232Z,37.77
2018-12-01T00:44:19.958Z,41.07
2018-12-01T00:46:48.830Z,43.23
2018-12-01T00:49:17.970Z,40.50
2018-12-01T00:53:06.072Z,45.20
2018-12-01T00:58:11.310Z,47.97
2018-12-01T01:00:40.344Z,44.97
2018-12-01T01:03:09.216Z,41.83
2018-12-01T01:05:39.125Z,49.30
2018-12-01T01:08:08.080Z,45.87
2018-12-01T01:10:38.172Z,48.20
2018-12-01T01:13:08.801Z,46.83
2018-12-01T01:15:38.182Z,41.40
2018-12-01T01:18:08.479Z,49.40
2018-12-01T01:20:37.315Z,42.90
2018-12-01T01:23:06.831Z,46.03
2018-12-01T01:25:36.144Z,41.87
2018-12-01T01:28:05.386Z,43.77
2018-12-01T01:30:34.353Z,39.07
2018-12-01T01:33:14.176Z,47.40
2018-12-01T01:35:44.806Z,44.73
2018-12-01T01:38:13.628Z,42.20
2018-12-01T01:40:42.465Z,44.40
2018-12-01T01:43:11.291Z,46.97
2018-12-01T01:45:41.243Z,46.87
2018-12-01T01:48:12.488Z,48.67
2018-12-01T01:50:41.724Z,50.63
2018-12-01T01:53:10.953Z,46.40
2018-12-01T01:55:40.732Z,44.20
2018-12-01T01:58:11.230Z,43.00
2018-12-01T02:00:41.110Z,46.03
2018-12-01T02:03:10.102Z,49.83
2018-12-01T02:05:38.928Z,48.67
2018-12-01T02:08:07.758Z,46.07
2018-12-01T02:10:36.599Z,46.47
2018-12-01T02:13:10.178Z,47.17
2018-12-01T02:15:39.157Z,42.47
2018-12-01T02:18:09.685Z,41.80
2018-12-01T02:20:38.574Z,45.50
2018-12-01T02:23:07.669Z,38.13
2018-12-01T02:25:36.493Z,42.47
2018-12-01T02:28:05.377Z,38.57
2018-12-01T02:30:34.186Z,45.90
2018-12-01T02:33:04.421Z,45.03
2018-12-01T02:35:33.409Z,49.90
2018-12-01T02:38:02.950Z,47.50
2018-12-01T02:40:32.371Z,52.90
2018-12-01T02:43:01.610Z,50.23
2018-12-01T02:45:41.226Z,42.97
2018-12-01T02:48:11.272Z,48.40
2018-12-01T02:50:40.825Z,39.87
2018-12-01T02:53:09.761Z,45.93
2018-12-01T02:55:39.698Z,43.43
2018-12-01T02:58:09.510Z,46.47
2018-12-01T03:00:38.323Z,51.50
2018-12-01T03:03:07.484Z,51.00
2018-12-01T03:05:36.296Z,55.80
2018-12-01T03:08:05.099Z,49.93
2018-12-01T03:10:34.615Z,47.60
2018-12-01T03:13:04.355Z,49.87
2018-12-01T03:15:33.154Z,47.60
2018-12-01T03:18:02.372Z,45.13
2018-12-01T03:20:32.186Z,46.50
2018-12-01T03:23:01.678Z,50.23
2018-12-01T03:25:31.306Z,44.43
2018-12-01T03:28:00.427Z,47.47
2018-12-01T03:30:29.399Z,41.47
2018-12-01T03:32:58.683Z,48.13
2018-12-01T03:35:27.797Z,50.00
2018-12-01T03:37:56.958Z,46.03
2018-12-01T03:40:25.897Z,47.47
2018-12-01T03:42:54.790Z,45.43
2018-12-01T03:45:24.063Z,50.90
2018-12-01T03:47:52.918Z,51.23
2018-12-01T03:50:23.049Z,48.37
2018-12-01T03:52:53.149Z,49.63
2018-12-01T03:55:30.218Z,45.23
2018-12-01T03:58:00.717Z,48.60
2018-12-01T04:00:31.261Z,43.27
2018-12-01T04:03:00.777Z,44.40
2018-12-01T04:05:31.032Z,45.00
2018-12-01T04:08:01.610Z,44.77
2018-12-01T04:10:30.772Z,46.63
2018-12-01T04:12:59.653Z,49.93
2018-12-01T04:15:28.606Z,46.20
2018-12-01T04:17:57.444Z,48.07
2018-12-01T04:20:26.242Z,47.17
2018-12-01T04:22:55.108Z,50.50
2018-12-01T04:25:24.010Z,50.13
2018-12-01T04:27:53.627Z,49.73
2018-12-01T04:30:24.741Z,51.30
2018-12-01T04:32:54.476Z,44.50
2018-12-01T04:35:24.722Z,45.80
2018-12-01T04:37:57.630Z,42.73
2018-12-01T04:40:26.561Z,44.77
2018-12-01T04:42:55.429Z,44.33
2018-12-01T04:45:24.249Z,51.53
2018-12-01T04:47:53.177Z,49.23
2018-12-01T04:50:21.988Z,42.00
2018-12-01T04:52:51.042Z,43.43
2018-12-01T04:55:24.082Z,42.30
2018-12-01T04:57:53.252Z,38.47
2018-12-01T05:00:22.421Z,42.53
2018-12-01T05:02:51.241Z,41.27
2018-12-01T05:05:21.787Z,44.73
2018-12-01T05:07:51.121Z,41.17
2018-12-01T05:10:20.981Z,42.70
2018-12-01T05:12:49.861Z,44.13
2018-12-01T05:15:19.481Z,39.80
2018-12-01T05:17:48.389Z,34.77
2018-12-01T05:21:25.653Z,44.73
2018-12-01T05:23:54.745Z,45.07
2018-12-01T05:26:23.621Z,35.00
2018-12-01T05:28:52.504Z,39.00
2018-12-01T05:31:21.337Z,37.10
2018-12-01T05:33:50.163Z,39.37
2018-12-01T05:36:32.279Z,38.23
2018-12-01T05:39:01.125Z,34.43
2018-12-01T05:41:30.347Z,44.77
2018-12-01T05:44:00.224Z,36.67
2018-12-01T05:46:29.495Z,39.70
2018-12-01T05:48:58.336Z,34.97
2018-12-01T05:51:27.685Z,38.33
2018-12-01T05:53:56.729Z,40.50
2018-12-01T05:56:25.553Z,34.97
2018-12-01T05:58:54.581Z,32.07
2018-12-01T06:01:24.480Z,40.10
2018-12-01T06:03:53.463Z,41.53
2018-12-01T06:06:26.772Z,35.37
2018-12-01T06:08:55.630Z,38.20
2018-12-01T06:11:25.416Z,37.80
2018-12-01T06:13:54.297Z,35.43
2018-12-01T06:16:23.446Z,32.67
2018-12-01T06:18:53.154Z,34.33
2018-12-01T06:21:23.160Z,28.00
2018-12-01T06:23:51.968Z,32.20
2018-12-01T06:26:20.801Z,31.47
2018-12-01T06:28:50.215Z,32.27
2018-12-01T06:31:19.150Z,37.97
2018-12-01T06:33:49.405Z,41.97
2018-12-01T06:36:18.248Z,30.97
2018-12-01T06:38:48.169Z,31.00
2018-12-01T06:41:17.050Z,40.33
2018-12-01T06:43:46.875Z,30.80
2018-12-01T06:46:15.801Z,37.07
2018-12-01T06:48:45.413Z,32.57
2018-12-01T06:51:27.364Z,31.43
2018-12-01T06:53:56.195Z,29.47
2018-12-01T06:56:25.152Z,29.67
2018-12-01T06:58:59.192Z,27.80
2018-12-01T07:01:28.263Z,26.87
2018-12-01T07:03:57.114Z,31.47
2018-12-01T07:06:26.134Z,28.53
2018-12-01T07:08:55.438Z,51.43
2018-12-01T07:11:24.320Z,30.57
2018-12-01T07:13:53.327Z,29.60
2018-12-01T07:16:22.214Z,26.13
2018-12-01T07:19:02.043Z,29.23
2018-12-01T07:21:31.538Z,25.93
2018-12-01T07:24:00.491Z,31.03
2018-12-01T07:26:29.883Z,21.93
2018-12-01T07:28:58.733Z,31.10
2018-12-01T07:31:27.652Z,27.57
2018-12-01T07:33:57.722Z,27.33
2018-12-01T07:36:28.650Z,30.33
2018-12-01T07:38:57.646Z,29.07
2018-12-01T07:41:26.561Z,31.20
2018-12-01T07:43:55.441Z,27.53
2018-12-01T07:46:27.675Z,21.03
2018-12-01T07:48:56.738Z,26.23
2018-12-01T07:51:25.633Z,25.43
2018-12-01T07:53:55.006Z,25.63
2018-12-01T07:56:25.157Z,32.83
2018-12-01T07:58:54.152Z,25.20
2018-12-01T08:01:23.343Z,26.43
2018-12-01T08:03:53.136Z,22.63
2018-12-01T08:06:25.218Z,20.37
2018-12-01T08:08:54.520Z,27.80
2018-12-01T08:11:24.067Z,27.60
2018-12-01T08:13:54.223Z,20.77
2018-12-01T08:16:23.512Z,23.83
2018-12-01T08:18:58.285Z,20.23
2018-12-01T08:21:28.571Z,25.03
2018-12-01T08:23:59.383Z,26.20
2018-12-01T08:26:28.292Z,21.83
2018-12-01T08:28:58.228Z,20.53
2018-12-01T08:31:27.968Z,20.53
2018-12-01T08:34:00.677Z,19.30
2018-12-01T08:36:30.532Z,19.90
2018-12-01T08:38:59.578Z,19.90
2018-12-01T08:41:28.693Z,18.23
2018-12-01T08:43:58.164Z,16.27
2018-12-01T08:46:27.006Z,20.57
2018-12-01T08:48:56.858Z,24.17
2018-12-01T08:51:27.195Z,19.97
2018-12-01T08:53:57.152Z,23.47
2018-12-01T08:56:32.230Z,19.97
2018-12-01T08:59:02.228Z,24.57
2018-12-01T09:01:40.318Z,21.67
2018-12-01T09:04:10.220Z,17.23
2018-12-01T09:06:40.204Z,19.53
2018-12-01T09:09:09.251Z,25.97
2018-12-01T09:13:01.588Z,23.60
2018-12-01T09:15:27.926Z,23.97
2018-12-01T09:17:56.868Z,24.33
2018-12-01T09:20:27.395Z,16.83
2018-12-01T09:22:56.685Z,15.93
2018-12-01T09:25:25.632Z,14.33
2018-12-01T09:27:57.985Z,14.77
2018-12-01T09:30:27.999Z,14.60
2018-12-01T09:32:59.103Z,18.07
2018-12-01T09:35:28.546Z,18.50
2018-12-01T09:39:17.003Z,16.77
2018-12-01T09:41:47.172Z,14.60
2018-12-01T09:44:17.324Z,14.53
2018-12-01T09:46:45.027Z,16.27
2018-12-01T09:49:14.368Z,23.13
2018-12-01T09:51:45.756Z,13.77
2018-12-01T09:54:15.616Z,13.83
2018-12-01T09:56:45.499Z,14.73
2018-12-01T09:59:14.455Z,18.93
2018-12-01T10:01:43.757Z,16.83
2018-12-01T10:04:13.014Z,12.00
2018-12-01T10:06:42.191Z,18.27
2018-12-01T10:09:11.426Z,16.00
2018-12-01T10:11:40.356Z,17.30
2018-12-01T10:14:11.432Z,17.80
2018-12-01T10:16:41.396Z,12.47
2018-12-01T10:19:10.311Z,15.23
2018-12-01T10:21:39.209Z,18.90
2018-12-01T10:24:08.498Z,17.27
2018-12-01T10:26:37.430Z,18.47
2018-12-01T10:29:06.332Z,21.57
2018-12-01T10:31:35.340Z,22.50
2018-12-01T10:34:06.317Z,20.00
2018-12-01T10:36:35.994Z,16.30
2018-12-01T10:39:07.637Z,25.03
2018-12-01T10:41:38.579Z,17.40
2018-12-01T10:44:09.326Z,18.00
2018-12-01T10:46:44.168Z,21.10
2018-12-01T10:49:13.407Z,18.70
2018-12-01T10:51:42.397Z,18.73
2018-12-01T10:54:12.713Z,15.43
2018-12-01T10:56:45.834Z,17.87
2018-12-01T10:59:20.052Z,13.43
2018-12-01T11:01:54.069Z,20.07
2018-12-01T11:04:29.598Z,19.27
2018-12-01T11:07:00.734Z,17.23
2018-12-01T11:09:34.576Z,26.13
2018-12-01T11:12:04.571Z,20.43
2018-12-01T11:14:33.681Z,17.30
2018-12-01T11:17:10.814Z,18.73
2018-12-01T11:19:40.885Z,16.60
2018-12-01T11:22:18.541Z,13.77
2018-12-01T11:24:50.773Z,18.20
2018-12-01T11:27:19.655Z,17.87
2018-12-01T11:29:49.578Z,20.27
2018-12-01T11:32:18.592Z,16.30
2018-12-01T11:34:49.783Z,13.67
2018-12-01T11:37:19.587Z,18.13
2018-12-01T11:39:49.683Z,15.30
2018-12-01T11:42:18.913Z,19.03
2018-12-01T11:44:56.813Z,14.93
2018-12-01T11:47:21.435Z,16.23
2018-12-01T11:49:51.306Z,14.53
2018-12-01T11:52:31.735Z,20.10
2018-12-01T11:55:00.679Z,11.43
2018-12-01T11:57:30.589Z,18.00
2018-12-01T12:00:00.978Z,14.17
2018-12-01T12:02:30.693Z,18.43
2018-12-01T12:04:59.710Z,17.10
2018-12-01T12:07:40.525Z,20.27
2018-12-01T12:10:10.653Z,17.80
2018-12-01T12:12:42.837Z,17.03
2018-12-01T12:15:12.117Z,19.40
2018-12-01T12:17:49.188Z,24.17
2018-12-01T12:20:20.582Z,16.57
2018-12-01T12:22:52.725Z,12.77
2018-12-01T12:25:21.577Z,16.77
2018-12-01T12:27:50.875Z,20.03
2018-12-01T12:30:25.946Z,13.57
2018-12-01T12:32:52.181Z,15.70
2018-12-01T12:35:22.726Z,13.93
2018-12-01T12:37:52.467Z,15.30
2018-12-01T12:40:28.672Z,13.23
2018-12-01T12:43:03.118Z,15.97
2018-12-01T12:45:33.778Z,14.70
2018-12-01T12:48:04.331Z,15.63
2018-12-01T12:50:33.245Z,20.10
2018-12-01T12:53:03.142Z,16.67
2018-12-01T12:55:33.891Z,14.17
2018-12-01T12:58:03.219Z,13.40
2018-12-01T13:00:32.696Z,20.13
2018-12-01T13:03:03.915Z,17.80
2018-12-01T13:05:43.228Z,20.33
2018-12-01T13:08:15.387Z,14.40
2018-12-01T13:10:45.492Z,20.07
2018-12-01T13:13:15.221Z,18.10
2018-12-01T13:15:47.374Z,18.47
2018-12-01T13:18:23.643Z,14.37
2018-12-01T13:20:59.615Z,16.07
2018-12-01T13:23:28.694Z,16.43
2018-12-01T13:26:02.558Z,11.80
2018-12-01T13:28:33.661Z,14.40
2018-12-01T13:31:03.747Z,15.17
2018-12-01T13:33:32.991Z,14.53
2018-12-01T13:36:02.289Z,16.93
2018-12-01T13:38:38.263Z,18.87
2018-12-01T13:41:07.348Z,17.97
2018-12-01T13:43:38.984Z,15.70
2018-12-01T13:46:09.090Z,16.70
2018-12-01T13:48:41.774Z,12.03
2018-12-01T13:51:11.207Z,22.50
2018-12-01T13:53:40.917Z,20.80
2018-12-01T13:56:11.315Z,19.33
2018-12-01T13:58:40.961Z,16.37
2018-12-01T14:01:09.910Z,14.27
2018-12-01T14:03:47.297Z,20.30
2018-12-01T14:06:17.099Z,18.93
2018-12-01T14:08:46.118Z,11.57
2018-12-01T14:11:16.042Z,15.70
2018-12-01T14:13:45.075Z,15.33
2018-12-01T14:16:14.715Z,19.27
2018-12-01T14:19:04.129Z,14.63
2018-12-01T14:21:34.748Z,10.20
2018-12-01T14:24:04.376Z,11.03
2018-12-01T14:26:37.130Z,14.23
2018-12-01T14:29:09.509Z,15.53
2018-12-01T14:31:39.734Z,15.80
2018-12-01T14:34:10.710Z,13.27
2018-12-01T14:36:49.626Z,13.17
2018-12-01T14:39:19.249Z,16.97
2018-12-01T14:41:50.352Z,13.23
2018-12-01T14:44:22.258Z,11.53
2018-12-01T14:46:57.296Z,12.67
2018-12-01T14:49:27.462Z,12.97
2018-12-01T14:52:07.360Z,17.10
2018-12-01T14:54:38.736Z,16.07
2018-12-01T14:57:09.078Z,13.27
2018-12-01T14:59:38.758Z,11.43
2018-12-01T15:02:07.968Z,15.37
2018-12-01T15:04:37.426Z,10.83
2018-12-01T15:07:08.229Z,10.80
2018-12-01T15:09:37.144Z,15.03
2018-12-01T15:12:07.262Z,11.33
2018-12-01T15:15:56.557Z,16.40
2018-12-01T15:18:29.314Z,10.07
2018-12-01T15:21:10.127Z,9.43
2018-12-01T15:23:40.638Z,13.77
2018-12-01T15:26:10.680Z,14.60
2018-12-01T15:28:43.235Z,10.37
2018-12-01T15:31:14.985Z,15.30
2018-12-01T15:33:47.790Z,13.53
2018-12-01T15:36:18.885Z,13.17
2018-12-01T15:38:49.778Z,13.23
2018-12-01T15:41:20.700Z,11.70
2018-12-01T15:43:50.498Z,12.93
2018-12-01T15:46:21.596Z,12.67
2018-12-01T15:48:51.433Z,12.80
2018-12-01T15:51:20.664Z,19.97
2018-12-01T15:53:52.677Z,12.20
2018-12-01T15:56:23.338Z,16.93
2018-12-01T16:00:13.114Z,10.63
2018-12-01T16:02:51.657Z,14.90
2018-12-01T16:05:22.571Z,19.17
2018-12-01T16:08:06.420Z,12.73
2018-12-01T16:10:35.693Z,11.73
2018-12-01T16:13:09.917Z,10.43
2018-12-01T16:15:41.603Z,12.20
2018-12-01T16:18:15.616Z,12.57
2018-12-01T16:20:45.206Z,13.60
2018-12-01T16:23:14.231Z,14.47
2018-12-01T16:25:45.094Z,16.20
2018-12-01T16:28:16.262Z,10.83
2018-12-01T16:30:46.383Z,9.67
2018-12-01T16:33:16.895Z,10.97
2018-12-01T16:35:46.667Z,13.37
2018-12-01T16:38:22.448Z,12.80
2018-12-01T16:41:04.017Z,10.63
2018-12-01T16:44:55.439Z,11.67
2018-12-01T16:47:25.631Z,6.90
2018-12-01T16:49:56.550Z,8.33
2018-12-01T16:52:31.766Z,9.03
2018-12-01T16:55:01.788Z,11.53
2018-12-01T16:57:31.542Z,12.70
2018-12-01T17:00:01.689Z,10.33
2018-12-01T17:02:30.591Z,10.97
2018-12-01T17:05:00.902Z,11.90
2018-12-01T17:07:33.520Z,8.33
2018-12-01T17:10:02.780Z,9.63
2018-12-01T17:12:34.196Z,11.50
2018-12-01T17:15:04.287Z,12.67
2018-12-01T17:17:35.237Z,9.37
2018-12-01T17:20:05.574Z,8.87
2018-12-01T17:22:35.235Z,8.77
2018-12-01T17:25:06.989Z,9.90
2018-12-01T17:27:37.163Z,13.97
2018-12-01T17:30:12.806Z,9.80
2018-12-01T17:32:43.673Z,11.03
2018-12-01T17:35:21.835Z,10.63
2018-12-01T17:37:52.453Z,11.10
2018-12-01T17:41:34.701Z,9.47
2018-12-01T17:44:08.169Z,11.97
2018-12-01T17:46:42.072Z,13.80
2018-12-01T17:49:11.353Z,9.43
2018-12-01T17:51:41.323Z,11.43
2018-12-01T17:54:27.494Z,10.87
2018-12-01T17:56:57.901Z,17.30
2018-12-01T17:59:30.505Z,11.63
2018-12-01T18:02:01.598Z,11.97
2018-12-01T18:04:31.307Z,10.93
2018-12-01T18:07:00.687Z,13.63
2018-12-01T18:09:30.584Z,12.13
2018-12-01T18:12:01.194Z,9.63
2018-12-01T18:14:30.145Z,11.93
2018-12-01T18:17:00.602Z,16.07
2018-12-01T18:19:29.667Z,12.17
2018-12-01T18:22:00.402Z,10.93
2018-12-01T18:24:30.263Z,13.67
2018-12-01T18:27:00.109Z,15.93
2018-12-01T18:29:30.571Z,8.90
2018-12-01T18:32:02.704Z,8.70
2018-12-01T18:34:31.735Z,9.90
2018-12-01T18:37:00.656Z,8.03
2018-12-01T18:39:31.045Z,14.13
2018-12-01T18:42:00.677Z,10.27
2018-12-01T18:44:31.381Z,10.27
2018-12-01T18:47:02.356Z,11.90
2018-12-01T18:49:32.915Z,10.20
2018-12-01T18:52:02.263Z,10.47
2018-12-01T18:54:32.233Z,10.57
2018-12-01T18:57:03.184Z,11.77
2018-12-01T18:59:32.634Z,8.17
2018-12-01T19:02:10.682Z,11.40
2018-12-01T19:04:44.093Z,8.77
2018-12-01T19:07:16.688Z,11.87
2018-12-01T19:09:47.645Z,16.73
2018-12-01T19:12:18.150Z,11.77
2018-12-01T19:14:47.452Z,10.30
2018-12-01T19:17:18.115Z,9.00
2018-12-01T19:19:48.342Z,11.13
2018-12-01T19:22:19.406Z,14.13
2018-12-01T19:24:49.383Z,8.17
2018-12-01T19:27:18.394Z,8.17
2018-12-01T19:29:49.066Z,9.87
2018-12-01T19:32:18.273Z,9.27
2018-12-01T19:34:48.316Z,11.70
2018-12-01T19:37:18.709Z,8.07
2018-12-01T19:39:50.148Z,8.57
2018-12-01T19:42:22.619Z,9.73
2018-12-01T19:44:52.403Z,9.13
2018-12-01T19:47:29.930Z,12.10
2018-12-01T19:50:01.177Z,9.03
2018-12-01T19:52:31.680Z,8.00
2018-12-01T19:55:01.214Z,8.73
2018-12-01T19:57:30.350Z,8.97
2018-12-01T19:59:59.643Z,14.20
2018-12-01T20:02:31.784Z,10.07
2018-12-01T20:05:02.165Z,8.70
2018-12-01T20:07:34.192Z,9.40
2018-12-01T20:10:04.354Z,10.00
2018-12-01T20:12:34.365Z,10.07
2018-12-01T20:15:05.660Z,6.93
2018-12-01T20:17:36.660Z,7.03
2018-12-01T20:20:07.374Z,8.47
2018-12-01T20:22:38.140Z,8.33
2018-12-01T20:25:10.834Z,8.43
2018-12-01T20:27:41.412Z,6.23
2018-12-01T20:30:14.869Z,6.67
2018-12-01T20:32:48.852Z,7.53
2018-12-01T20:35:23.874Z,10.23
2018-12-01T20:38:11.644Z,7.77
2018-12-01T20:40:41.669Z,5.70
2018-12-01T20:43:10.549Z,10.67
2018-12-01T20:45:41.241Z,10.20
2018-12-01T20:48:10.204Z,11.87
2018-12-01T20:50:40.480Z,8.23
2018-12-01T20:53:09.959Z,8.47
2018-12-01T20:55:42.937Z,6.17
2018-12-01T20:58:13.238Z,10.70
2018-12-01T21:00:43.539Z,7.57
2018-12-01T21:03:13.538Z,8.83
2018-12-01T21:05:43.366Z,7.33
2018-12-01T21:08:13.528Z,6.87
2018-12-01T21:10:47.261Z,9.77
2018-12-01T21:13:16.115Z,8.03
2018-12-01T21:15:45.218Z,7.37
2018-12-01T21:18:16.462Z,5.30
2018-12-01T21:20:46.645Z,5.20
2018-12-01T21:23:18.240Z,6.33
2018-12-01T21:25:47.677Z,5.53
2018-12-01T21:28:17.809Z,5.10
2018-12-01T21:30:48.303Z,4.00
2018-12-01T21:33:30.446Z,7.30
2018-12-01T21:36:02.820Z,5.50
2018-12-01T21:38:32.170Z,2.77
2018-12-01T21:41:01.868Z,7.33
2018-12-01T21:43:32.238Z,4.47
2018-12-01T21:46:03.815Z,3.20
2018-12-01T21:48:33.188Z,3.30
2018-12-01T21:51:03.703Z,4.93
2018-12-01T21:53:34.895Z,5.67
2018-12-01T21:56:04.299Z,6.37
2018-12-01T21:58:33.541Z,7.77
2018-12-01T22:01:06.566Z,4.27
2018-12-01T22:03:36.309Z,2.77
2018-12-01T22:06:09.973Z,4.50
2018-12-01T22:08:39.131Z,4.20
2018-12-01T22:11:13.471Z,5.73
2018-12-01T22:13:43.392Z,6.50
2018-12-01T22:16:15.409Z,5.13
2018-12-01T22:18:46.637Z,5.67
2018-12-01T22:21:16.173Z,3.70
2018-12-01T22:23:45.153Z,3.53
2018-12-01T22:26:27.471Z,2.07
2018-12-01T22:28:56.570Z,6.30
2018-12-01T22:31:26.668Z,4.90
2018-12-01T22:33:59.408Z,2.67
2018-12-01T22:36:29.667Z,4.03
2018-12-01T22:39:00.317Z,6.63
2018-12-01T22:41:29.905Z,3.97
2018-12-01T22:43:58.793Z,5.33
2018-12-01T22:46:28.585Z,5.90
2018-12-01T22:48:57.458Z,3.97
2018-12-01T22:51:27.364Z,3.97
2018-12-01T22:53:57.580Z,3.77
2018-12-01T22:56:28.933Z,3.60
2018-12-01T22:58:56.958Z,4.83
2018-12-01T23:01:28.886Z,4.83
2018-12-01T23:03:58.587Z,3.27
2018-12-01T23:06:29.012Z,4.83
2018-12-01T23:08:58.627Z,6.90
2018-12-01T23:11:30.308Z,4.47
2018-12-01T23:16:21.322Z,5.33
2018-12-01T23:18:51.518Z,5.63
2018-12-01T23:21:20.671Z,8.20
2018-12-01T23:23:51.523Z,4.47
2018-12-01T23:26:23.417Z,3.90
2018-12-01T23:28:53.791Z,5.37
2018-12-01T23:31:22.660Z,4.23
2018-12-01T23:33:52.223Z,4.60
2018-12-01T23:36:21.092Z,4.13
2018-12-01T23:38:50.139Z,16.63
2018-12-01T23:41:18.977Z,4.93
2018-12-01T23:43:49.101Z,5.37
2018-12-01T23:46:17.980Z,6.43
2018-12-01T23:48:47.605Z,5.07
2018-12-01T23:51:17.677Z,5.50
2018-12-01T23:53:51.983Z,6.73
2018-12-01T23:56:31.454Z,4.73
2018-12-01T23:59:00.675Z,3.67
